createdAt,value
2018-06-25T09:12:02.258Z,21.8
2018-06-25T09:12:52.272Z,20.9
2018-06-25T09:15:23.615Z,21.4
2018-06-25T09:16:13.291Z,21.6
2018-06-25T09:17:03.074Z,21.9
2018-06-25T09:17:53.106Z,22.2
2018-06-25T09:18:43.179Z,22.4
2018-06-25T09:19:33.518Z,22.5
2018-06-25T09:20:23.617Z,22.6
2018-06-25T09:21:13.386Z,23
2018-06-25T09:22:03.991Z,22.8
2018-06-25T09:22:52.943Z,22.4
2018-06-25T09:23:43.876Z,21.8
2018-06-25T09:24:33.899Z,21.8
2018-06-25T09:25:23.982Z,22.3
2018-06-25T09:26:14.022Z,22
2018-06-25T09:27:03.547Z,21.7
2018-06-25T09:27:54.442Z,21.2
2018-06-25T09:28:44.228Z,21.9
2018-06-25T09:29:34.294Z,21.7
2018-06-25T09:30:24.077Z,21.7
2018-06-25T09:31:14.115Z,21.9
2018-06-25T09:32:03.936Z,22
2018-06-25T09:32:54.550Z,22
2018-06-25T09:33:44.072Z,21.6
2018-06-25T09:34:34.716Z,21.7
2018-06-25T09:35:25.518Z,21.9
2018-06-25T09:36:14.803Z,22.1
2018-06-25T09:37:04.316Z,21.9
2018-06-25T09:37:54.925Z,21.4
2018-06-25T09:38:44.453Z,21.6
2018-06-25T09:39:35.114Z,22.2
2018-06-25T09:40:25.104Z,22.5
2018-06-25T09:41:15.296Z,22.4
2018-06-25T09:42:04.991Z,22.4
2018-06-25T09:42:55.366Z,22.9
2018-06-25T09:43:44.631Z,22.8
2018-06-25T09:44:35.452Z,22.7
2018-06-25T09:45:24.671Z,22.4
2018-06-25T09:46:15.004Z,22.3
2018-06-25T09:47:06.276Z,21.9
2018-06-25T09:47:55.430Z,21.8
2018-06-25T09:48:45.762Z,21.6
2018-06-25T09:49:35.823Z,21.4
2018-06-25T09:50:25.899Z,22.1
2018-06-25T09:51:15.664Z,22.1
2018-06-25T09:52:05.714Z,22.2
2018-06-25T09:52:56.075Z,21.9
2018-06-25T09:53:46.175Z,21.8
2018-06-25T09:54:35.226Z,21.6
2018-06-25T09:55:26.249Z,21.3
2018-06-25T09:56:15.487Z,21.6
2018-06-25T09:57:06.123Z,21.9
2018-06-25T09:57:56.175Z,21.9
2018-06-25T09:58:46.289Z,21.7
2018-06-25T09:59:36.034Z,21.8
2018-06-25T10:00:26.635Z,21.4
2018-06-25T10:01:16.463Z,21.8
2018-06-25T10:02:06.502Z,21.9
2018-06-25T10:02:56.559Z,21.8
2018-06-25T10:03:46.644Z,22.1
2018-06-25T10:04:36.675Z,22.6
2018-06-25T10:05:26.774Z,22.4
2018-06-25T10:06:17.108Z,22.2
2018-06-25T10:07:06.895Z,21.9
2018-06-25T10:07:57.202Z,21.9
2018-06-25T10:08:47.007Z,21.4
2018-06-25T10:09:36.783Z,21.3
2018-06-25T10:10:27.269Z,21.4
2018-06-25T10:11:17.479Z,21.2
2018-06-25T10:12:06.983Z,21.5
2018-06-25T10:12:57.321Z,21.3
2018-06-25T10:13:47.416Z,21.3
2018-06-25T10:14:37.710Z,21.4
2018-06-25T10:15:27.785Z,21.2
2018-06-25T10:16:17.581Z,21.6
2018-06-25T10:17:07.624Z,21.9
2018-06-25T10:17:57.984Z,22
2018-06-25T10:18:47.753Z,22.2
2018-06-25T10:19:38.138Z,21.9
2018-06-25T10:20:28.195Z,21.9
2018-06-25T10:21:18.453Z,22.1
2018-06-25T10:22:08.043Z,22.4
2018-06-25T10:22:58.381Z,22.3
2018-06-25T10:23:48.178Z,22.4
2018-06-25T10:24:38.493Z,22.4
2018-06-25T10:25:28.282Z,22
2018-06-25T10:26:18.339Z,22.5
2018-06-25T10:27:08.513Z,23.4
2018-06-25T10:27:58.259Z,23.3
2018-06-25T10:28:48.287Z,22.8
2018-06-25T10:29:38.595Z,22.8
2018-06-25T10:30:28.387Z,22.7
2018-06-25T10:31:19.047Z,22.6
2018-06-25T10:32:09.095Z,22.1
2018-06-25T10:32:58.977Z,22.1
2018-06-25T10:33:48.924Z,22.3
2018-06-25T10:34:39.375Z,22.4
2018-06-25T10:35:29.339Z,22.2
2018-06-25T10:36:19.380Z,22.6
2018-06-25T10:37:09.156Z,22.8
2018-06-25T10:37:59.552Z,22.7
2018-06-25T10:38:49.033Z,22.9
2018-06-25T10:39:39.643Z,22.7
2018-06-25T10:40:29.426Z,22.9
2018-06-25T10:41:19.799Z,22.9
2018-06-25T10:42:10.152Z,23.1
2018-06-25T10:42:59.901Z,23.2
2018-06-25T10:43:49.680Z,23.1
2018-06-25T10:44:39.737Z,22.8
2018-06-25T10:45:30.099Z,22.8
2018-06-25T10:46:19.584Z,22.8
2018-06-25T10:47:09.925Z,22.6
2018-06-25T10:48:00.291Z,22.9
2018-06-25T10:48:49.817Z,23.6
2018-06-25T10:49:40.132Z,23.5
2018-06-25T10:50:29.906Z,23.6
2018-06-25T10:51:20.060Z,23.6
2018-06-25T10:52:10.341Z,23.2
2018-06-25T10:53:00.423Z,22.9
2018-06-25T10:53:50.712Z,23.9
2018-06-25T10:54:40.769Z,24.3
2018-06-25T10:55:30.547Z,24.1
2018-06-25T10:56:20.167Z,24.3
2018-06-25T10:57:10.716Z,24.1
2018-06-25T10:58:00.746Z,23.5
2018-06-25T10:58:51.088Z,23.3
2018-06-25T10:59:42.009Z,23.4
2018-06-25T11:00:31.118Z,23.1
2018-06-25T11:01:21.059Z,22.8
2018-06-25T11:02:11.342Z,22.9
2018-06-25T11:03:01.421Z,23.6
2018-06-25T11:03:51.464Z,23.9
2018-06-25T11:04:41.539Z,23.3
2018-06-25T11:05:31.328Z,23.1
2018-06-25T11:06:21.399Z,23.4
2018-06-25T11:07:12.521Z,23.3
2018-06-25T11:08:01.807Z,23.3
2018-06-25T11:08:51.902Z,23.4
2018-06-25T11:09:41.650Z,23.8
2018-06-25T11:10:31.775Z,23.7
2018-06-25T11:11:21.985Z,24.1
2018-06-25T11:12:11.105Z,23.8
2018-06-25T11:13:02.704Z,23.6
2018-06-25T11:13:51.989Z,23.2
2018-06-25T11:14:41.489Z,23.1
2018-06-25T11:15:32.426Z,22.7
2018-06-25T11:16:21.903Z,22.6
2018-06-25T11:17:12.528Z,23.2
2018-06-25T11:18:02.577Z,23.2
2018-06-25T11:18:52.642Z,23
2018-06-25T11:19:42.206Z,23.4
2018-06-25T11:20:32.775Z,23.5
2018-06-25T11:21:22.856Z,23.9
2018-06-25T11:22:12.615Z,24.3
2018-06-25T11:23:02.700Z,24
2018-06-25T11:23:53.018Z,23.9
2018-06-25T11:24:42.545Z,24
2018-06-25T11:25:33.155Z,23.1
2018-06-25T11:26:23.203Z,22.8
2018-06-25T11:27:13.483Z,22.6
2018-06-25T11:28:03.085Z,22.4
2018-06-25T11:28:53.417Z,22.8
2018-06-25T11:29:43.472Z,22.8
2018-06-25T11:30:33.254Z,23.3
2018-06-25T11:31:23.585Z,24.1
2018-06-25T11:32:13.705Z,24.3
2018-06-25T11:33:03.744Z,23.9
2018-06-25T11:33:53.247Z,23.8
2018-06-25T11:34:43.908Z,23.6
2018-06-25T11:35:33.361Z,22.8
2018-06-25T11:36:23.430Z,22.8
2018-06-25T11:37:14.064Z,23.1
2018-06-25T11:38:04.113Z,22.8
2018-06-25T11:38:53.666Z,23
2018-06-25T11:39:44.235Z,23.6
2018-06-25T11:40:34.317Z,23.5
2018-06-25T11:41:24.089Z,24.1
2018-06-25T11:42:14.433Z,23.8
2018-06-25T11:43:04.228Z,23.2
2018-06-25T11:43:54.296Z,23
2018-06-25T11:44:44.616Z,23
2018-06-25T11:45:34.426Z,22.9
2018-06-25T11:46:24.478Z,22.8
2018-06-25T11:47:14.550Z,22.6
2018-06-25T11:48:04.666Z,22.6
2018-06-25T11:48:54.663Z,22.6
2018-06-25T11:49:45.038Z,22.6
2018-06-25T11:50:34.511Z,22.5
2018-06-25T11:51:24.886Z,22.5
2018-06-25T11:52:14.931Z,22.5
2018-06-25T11:53:04.705Z,22.6
2018-06-25T11:53:54.563Z,22.7
2018-06-25T11:54:45.378Z,22.8
2018-06-25T11:55:34.907Z,22.7
2018-06-25T11:56:25.029Z,22.9
2018-06-25T11:57:14.728Z,22.8
2018-06-25T11:58:04.980Z,22.6
2018-06-25T11:58:55.235Z,22.3
2018-06-25T11:59:45.220Z,22.3
2018-06-25T12:00:35.610Z,22.4
2018-06-25T12:01:25.638Z,22.5
2018-06-25T12:02:15.778Z,22.4
2018-06-25T12:03:06.410Z,22.4
2018-06-25T12:03:56.095Z,22.3
2018-06-25T12:04:46.189Z,22.3
2018-06-25T12:05:35.943Z,22.5
2018-06-25T12:06:26.020Z,23.1
2018-06-25T12:07:16.183Z,23.4
2018-06-25T12:08:06.442Z,23.4
2018-06-25T12:08:56.217Z,23.1
2018-06-25T12:09:46.544Z,22.9
2018-06-25T12:10:36.924Z,22.8
2018-06-25T12:11:26.167Z,22.8
2018-06-25T12:12:16.201Z,22.8
2018-06-25T12:13:06.064Z,22.6
2018-06-25T12:13:56.614Z,22.4
2018-06-25T12:14:46.931Z,22.3
2018-06-25T12:15:36.987Z,22.4
2018-06-25T12:16:26.784Z,22.4
2018-06-25T12:17:16.862Z,22.4
2018-06-25T12:18:06.927Z,22.4
2018-06-25T12:18:57.339Z,22.3
2018-06-25T12:19:46.639Z,22.4
2018-06-25T12:20:37.374Z,22.6
2018-06-25T12:21:27.451Z,22.6
2018-06-25T12:22:16.960Z,22.7
2018-06-25T12:23:08.176Z,22.6
2018-06-25T12:23:57.090Z,22.8
2018-06-25T12:24:47.457Z,22.8
2018-06-25T12:25:37.236Z,22.9
2018-06-25T12:26:27.557Z,22.8
2018-06-25T12:27:17.901Z,22.8
2018-06-25T12:28:07.945Z,22.7
2018-06-25T12:28:57.479Z,22.8
2018-06-25T12:29:48.060Z,23.3
2018-06-25T12:30:37.601Z,23.4
2018-06-25T12:31:28.225Z,23.3
2018-06-25T12:32:18.002Z,23.1
2018-06-25T12:33:08.365Z,23
2018-06-25T12:33:58.107Z,23.3
2018-06-25T12:34:48.185Z,23.4
2018-06-25T12:35:38.306Z,23.4
2018-06-25T12:36:28.581Z,23.2
2018-06-25T12:37:18.650Z,23.1
2018-06-25T12:38:08.713Z,23
2018-06-25T12:38:58.505Z,22.7
2018-06-25T12:39:48.855Z,22.8
2018-06-25T12:40:38.633Z,23.1
2018-06-25T12:41:29.378Z,23.1
2018-06-25T12:42:19.047Z,23.6
2018-06-25T12:43:09.476Z,23.8
2018-06-25T12:43:58.908Z,23.2
2018-06-25T12:44:49.242Z,23.6
2018-06-25T12:45:38.730Z,23.8
2018-06-25T12:46:29.396Z,24.1
2018-06-25T12:47:18.897Z,24.2
2018-06-25T12:48:09.479Z,24.3
2018-06-25T12:48:59.589Z,23.5
2018-06-25T12:49:49.342Z,23.2
2018-06-25T12:50:39.688Z,22.9
2018-06-25T12:51:29.480Z,22.6
2018-06-25T12:52:19.808Z,22.6
2018-06-25T12:53:09.881Z,22.3
2018-06-25T12:54:00.090Z,22.4
2018-06-25T12:54:49.741Z,22.6
2018-06-25T12:55:40.080Z,22.6
2018-06-25T12:56:29.577Z,22.8
2018-06-25T12:57:20.196Z,23.1
2018-06-25T12:58:09.968Z,23.3
2018-06-25T12:58:59.777Z,23.3
2018-06-25T12:59:50.399Z,23.3
2018-06-25T13:00:40.421Z,23.1
2018-06-25T13:01:30.310Z,23.4
2018-06-25T13:02:20.564Z,22.6
2018-06-25T13:03:10.672Z,22.4
2018-06-25T13:03:59.855Z,22.6
2018-06-25T13:04:50.483Z,22.6
2018-06-25T13:05:40.841Z,22.3
2018-06-25T13:06:30.909Z,22.3
2018-06-25T13:07:20.684Z,22.3
2018-06-25T13:08:10.455Z,22.5
2018-06-25T13:09:00.344Z,22.5
2018-06-25T13:09:50.888Z,22.5
2018-06-25T13:10:41.516Z,22.6
2018-06-25T13:11:31.269Z,22.4
2018-06-25T13:12:21.381Z,22.3
2018-06-25T13:13:11.392Z,22.3
2018-06-25T13:14:00.895Z,22.4
2018-06-25T13:14:51.881Z,22.4
2018-06-25T13:15:41.593Z,22.2
2018-06-25T13:16:31.189Z,22.1
2018-06-25T13:17:21.781Z,21.9
2018-06-25T13:18:12.048Z,21.9
2018-06-25T13:19:01.573Z,21.8
2018-06-25T13:19:51.623Z,21.8
2018-06-25T13:20:42.437Z,21.9
2018-06-25T13:21:32.056Z,22.1
2018-06-25T13:22:21.837Z,22.1
2018-06-25T13:23:12.171Z,22.1
2018-06-25T13:24:02.243Z,22.1
2018-06-25T13:24:52.002Z,22
2018-06-25T13:25:42.771Z,21.8
2018-06-25T13:26:32.152Z,21.5
2018-06-25T13:27:22.512Z,21.5
2018-06-25T13:28:12.538Z,21.6
2018-06-25T13:29:02.242Z,21.6
2018-06-25T13:29:52.656Z,21.6
2018-06-25T13:30:42.761Z,21.5
2018-06-25T13:31:32.836Z,21.5
2018-06-25T13:32:22.848Z,21.6
2018-06-25T13:33:12.939Z,21.8
2018-06-25T13:34:02.756Z,21.8
2018-06-25T13:34:53.086Z,22.4
2018-06-25T13:35:43.123Z,22.7
2018-06-25T13:36:32.948Z,23.1
2018-06-25T13:37:22.975Z,23.3
2018-06-25T13:38:13.588Z,23.2
2018-06-25T13:39:03.422Z,23.4
2018-06-25T13:39:52.876Z,23.4
2018-06-25T13:40:42.953Z,23.3
2018-06-25T13:41:33.485Z,22.9
2018-06-25T13:42:23.667Z,22.9
2018-06-25T13:43:13.164Z,23.1
2018-06-25T13:44:03.790Z,23
2018-06-25T13:44:53.556Z,23.1
2018-06-25T13:45:44.479Z,23.1
2018-06-25T13:46:34.016Z,22.8
2018-06-25T13:47:24.025Z,22.9
2018-06-25T13:48:14.263Z,23.3
2018-06-25T13:49:04.236Z,23.6
2018-06-25T13:49:54.271Z,23.9
2018-06-25T13:50:44.315Z,24.3
2018-06-25T13:51:34.087Z,24.5
2018-06-25T13:52:24.176Z,24.8
2018-06-25T13:53:13.616Z,24.7
2018-06-25T13:54:04.244Z,25
2018-06-25T13:54:54.503Z,25.1
2018-06-25T13:55:44.120Z,24.4
2018-06-25T13:56:34.719Z,24.2
2018-06-25T13:57:24.222Z,24.2
2018-06-25T13:58:14.887Z,24.4
2018-06-25T13:59:04.942Z,24.3
2018-06-25T13:59:54.414Z,24.3
2018-06-25T14:00:45.539Z,24.3
2018-06-25T14:01:34.579Z,24.1
2018-06-25T14:02:25.170Z,24.1
2018-06-25T14:03:15.266Z,24.1
2018-06-25T14:04:05.328Z,24.2
2018-06-25T14:04:55.096Z,24
2018-06-25T14:05:45.124Z,23.6
2018-06-25T14:06:35.244Z,22.8
2018-06-25T14:07:25.566Z,23.2
2018-06-25T14:08:15.667Z,23
2018-06-25T14:09:05.134Z,23.1
2018-06-25T14:09:55.825Z,23.1
2018-06-25T14:10:45.586Z,22.9
2018-06-25T14:11:35.596Z,22.9
2018-06-25T14:12:25.366Z,22.8
2018-06-25T14:13:15.994Z,22.8
2018-06-25T14:14:06.081Z,22.8
2018-06-25T14:14:55.632Z,23
2018-06-25T14:15:46.005Z,23.1
2018-06-25T14:16:36.531Z,23.1
2018-06-25T14:17:25.748Z,23.2
2018-06-25T14:18:16.410Z,23.1
2018-06-25T14:19:06.458Z,23.1
2018-06-25T14:19:56.516Z,22.9
2018-06-25T14:20:46.582Z,22.9
2018-06-25T14:21:36.375Z,22.9
2018-06-25T14:22:26.144Z,22.9
2018-06-25T14:23:16.519Z,22.6
2018-06-25T14:24:06.561Z,22.4
2018-06-25T14:24:56.868Z,22.6
2018-06-25T14:25:46.939Z,22.6
2018-06-25T14:26:37.033Z,22.8
2018-06-25T14:27:26.803Z,22.8
2018-06-25T14:28:17.249Z,22.6
2018-06-25T14:29:06.919Z,22.6
2018-06-25T14:29:57.348Z,22.6
2018-06-25T14:30:47.063Z,22.5
2018-06-25T14:31:37.406Z,22.3
2018-06-25T14:32:27.217Z,22.3
2018-06-25T14:33:17.563Z,22.2
2018-06-25T14:34:07.632Z,22.2
2018-06-25T14:34:57.730Z,22.4
2018-06-25T14:35:47.148Z,22.5
2018-06-25T14:36:37.505Z,22.6
2018-06-25T14:37:27.855Z,22.6
2018-06-25T14:38:17.911Z,22.6
2018-06-25T14:39:07.679Z,22.5
2018-06-25T14:39:58.023Z,22.5
2018-06-25T14:40:48.451Z,22.4
2018-06-25T14:41:37.877Z,22.4
2018-06-25T14:42:27.948Z,22.4
2018-06-25T14:43:18.065Z,22.6
2018-06-25T14:44:08.141Z,22.7
2018-06-25T14:44:58.153Z,22.6
2018-06-25T14:45:48.212Z,22.2
2018-06-25T14:46:38.551Z,22.1
2018-06-25T14:47:28.634Z,22.2
2018-06-25T14:48:18.969Z,22.3
2018-06-25T14:49:08.440Z,22.4
2018-06-25T14:49:58.835Z,22.4
2018-06-25T14:50:48.578Z,22.4
2018-06-25T14:51:38.378Z,22.5
2018-06-25T14:52:29.229Z,22.6
2018-06-25T14:53:19.066Z,22.8
2018-06-25T14:54:08.563Z,22.8
2018-06-25T14:54:59.199Z,22.8
2018-06-25T14:55:48.982Z,22.8
2018-06-25T14:56:39.380Z,22.9
2018-06-25T14:57:29.381Z,22.5
2018-06-25T14:58:19.158Z,22.6
2018-06-25T14:59:09.348Z,22.8
2018-06-25T14:59:59.272Z,22.7
2018-06-25T15:00:49.625Z,22.6
2018-06-25T15:01:39.698Z,22.6
2018-06-25T15:02:29.525Z,22.7
2018-06-25T15:03:19.795Z,22.8
2018-06-25T15:04:09.620Z,22.8
2018-06-25T15:04:59.970Z,22.7
2018-06-25T15:05:49.491Z,22.7
2018-06-25T15:06:39.868Z,22.8
2018-06-25T15:07:29.569Z,23
2018-06-25T15:08:19.385Z,23.1
2018-06-25T15:09:09.725Z,23.5
2018-06-25T15:09:59.493Z,23.8
2018-06-25T15:10:50.114Z,24
2018-06-25T15:11:57.445Z,24.8
2018-06-25T15:12:47.237Z,25.1
2018-06-25T15:13:37.849Z,24.4
2018-06-25T15:14:28.205Z,24.4
2018-06-25T15:15:18.236Z,24.8
2018-06-25T15:16:08.315Z,25.1
2018-06-25T15:16:57.826Z,24.8
2018-06-25T15:17:48.511Z,24.6
2018-06-25T15:18:38.491Z,24.8
2018-06-25T15:19:28.301Z,25.2
2018-06-25T15:20:18.676Z,25.2
2018-06-25T15:21:08.455Z,24.3
2018-06-25T15:21:57.918Z,23.5
2018-06-25T15:22:48.839Z,23.3
2018-06-25T15:23:38.642Z,23.2
2018-06-25T15:24:28.666Z,22.8
2018-06-25T15:25:19.024Z,22.9
2018-06-25T15:26:09.319Z,22.9
2018-06-25T15:26:59.167Z,22.6
2018-06-25T15:27:49.304Z,22.6
2018-06-25T15:28:39.247Z,22.6
2018-06-25T15:29:29.353Z,22.7
2018-06-25T15:30:19.433Z,22.5
2018-06-25T15:31:09.472Z,22.5
2018-06-25T15:31:59.581Z,22.4
2018-06-25T15:32:49.614Z,22.3
2018-06-25T15:33:39.664Z,22.2
2018-06-25T15:34:29.748Z,22.3
2018-06-25T15:35:19.515Z,22.3
2018-06-25T15:36:09.567Z,22.3
2018-06-25T15:36:59.618Z,22.3
2018-06-25T15:37:49.702Z,22.3
2018-06-25T15:38:40.052Z,22.3
2018-06-25T15:39:29.826Z,22.3
2018-06-25T15:40:20.163Z,22.4
2018-06-25T15:41:09.937Z,22.3
2018-06-25T15:41:59.750Z,22.3
2018-06-25T15:42:50.348Z,22.2
2018-06-25T15:43:40.439Z,22.2
2018-06-25T15:44:30.500Z,22.1
2018-06-25T15:45:20.258Z,22.1
2018-06-25T15:46:10.332Z,22
2018-06-25T15:46:59.845Z,22
2018-06-25T15:47:50.775Z,22
2018-06-25T15:48:40.276Z,22.2
2018-06-25T15:49:30.604Z,22.1
2018-06-25T15:50:20.646Z,22.3
2018-06-25T15:51:10.707Z,22.4
2018-06-25T15:52:01.067Z,22.6
2018-06-25T15:52:51.120Z,23.3
2018-06-25T15:53:41.205Z,23.8
2018-06-25T15:54:30.704Z,23.5
2018-06-25T15:55:21.307Z,22.9
2018-06-25T15:56:11.375Z,23.4
2018-06-25T15:57:01.457Z,24.3
2018-06-25T15:57:51.219Z,24.2
2018-06-25T15:58:41.605Z,23.8
2018-06-25T15:59:31.362Z,23.8
2018-06-25T16:00:21.417Z,23.3
2018-06-25T16:01:11.492Z,23.1
2018-06-25T16:02:01.839Z,22.6
2018-06-25T16:02:51.886Z,22.6
2018-06-25T16:03:41.667Z,22.5
2018-06-25T16:04:32.026Z,22.3
2018-06-25T16:05:21.253Z,22.3
2018-06-25T16:06:12.141Z,22.1
2018-06-25T16:07:03.596Z,22
2018-06-25T16:07:51.994Z,22.1
2018-06-25T16:08:42.055Z,22.1
2018-06-25T16:09:32.406Z,22
2018-06-25T16:10:22.451Z,22
2018-06-25T16:11:12.268Z,22
2018-06-25T16:12:02.604Z,22
2018-06-25T16:12:52.642Z,22
2018-06-25T16:13:42.744Z,22
2018-06-25T16:14:32.521Z,21.9
2018-06-25T16:15:22.571Z,21.9
2018-06-25T16:16:12.899Z,21.9
2018-06-25T16:17:02.694Z,21.9
2018-06-25T16:17:52.774Z,21.9
2018-06-25T16:18:43.101Z,22.3
2018-06-25T16:19:33.168Z,23.1
2018-06-25T16:20:23.203Z,23.4
2018-06-25T16:21:13.003Z,23.5
2018-06-25T16:22:03.063Z,23.4
2018-06-25T16:22:53.229Z,23.7
2018-06-25T16:23:43.212Z,23.4
2018-06-25T16:24:33.252Z,23.3
2018-06-25T16:25:23.639Z,23.1
2018-06-25T16:26:13.384Z,23
2018-06-25T16:27:03.464Z,23
2018-06-25T16:27:53.553Z,23.1
2018-06-25T16:28:44.334Z,22.8
2018-06-25T16:29:33.355Z,22.7
2018-06-25T16:30:23.700Z,22.1
2018-06-25T16:31:13.783Z,21.8
2018-06-25T16:32:04.133Z,21.6
2018-06-25T16:32:54.177Z,21.9
2018-06-25T16:33:44.217Z,22.6
2018-06-25T16:34:33.468Z,23
2018-06-25T16:35:23.815Z,23.1
2018-06-25T16:36:13.860Z,23.3
2018-06-25T16:37:04.253Z,23.1
2018-06-25T16:37:54.004Z,22.9
2018-06-25T16:38:44.354Z,22.8
2018-06-25T16:39:34.732Z,22.4
2018-06-25T16:40:24.764Z,22.2
2018-06-25T16:41:14.797Z,22
2018-06-25T16:42:04.592Z,21.8
2018-06-25T16:42:54.407Z,21.6
2018-06-25T16:43:44.991Z,21.6
2018-06-25T16:44:35.079Z,21.6
2018-06-25T16:45:24.643Z,21.6
2018-06-25T16:46:15.210Z,21.6
2018-06-25T16:47:04.966Z,21.6
2018-06-25T16:47:55.339Z,21.8
2018-06-25T16:48:45.394Z,21.8
2018-06-25T16:49:35.450Z,21.5
2018-06-25T16:50:25.506Z,21.5
2018-06-25T16:51:15.313Z,21.4
2018-06-25T16:52:05.365Z,21.4
2018-06-25T16:52:55.158Z,21.4
2018-06-25T16:53:45.463Z,21.3
2018-06-25T16:54:35.625Z,21.2
2018-06-25T16:55:25.588Z,21.2
2018-06-25T16:57:06.013Z,21.1
2018-06-25T16:57:56.091Z,20.9
2018-06-25T16:58:46.154Z,20.9
2018-06-25T16:59:36.104Z,20.8
2018-06-25T17:00:26.297Z,20.8
2018-06-25T17:01:16.367Z,20.7
2018-06-25T17:02:05.259Z,20.7
2018-06-25T17:02:56.451Z,20.6
2018-06-25T17:03:46.316Z,20.6
2018-06-25T17:04:36.606Z,20.6
2018-06-25T17:05:26.386Z,20.6
2018-06-25T17:06:16.437Z,20.5
2018-06-25T17:07:06.780Z,20.5
2018-06-25T17:07:56.268Z,20.4
2018-06-25T17:08:46.953Z,20.4
2018-06-25T17:09:36.995Z,20.4
2018-06-25T17:10:26.752Z,20.4
2018-06-25T17:11:17.170Z,20.4
2018-06-25T17:12:07.159Z,20.4
2018-06-25T17:12:56.680Z,20.3
2018-06-25T17:13:46.979Z,20.3
2018-06-25T17:14:37.366Z,20.3
2018-06-25T17:15:27.116Z,20.3
2018-06-25T17:16:17.449Z,20.3
2018-06-25T17:17:07.571Z,20.3
2018-06-25T17:17:57.325Z,20.3
2018-06-25T17:18:47.369Z,20.2
2018-06-25T17:19:37.417Z,20.1
2018-06-25T17:20:27.763Z,20.1
2018-06-25T17:21:17.375Z,20.1
2018-06-25T17:22:08.465Z,20
2018-06-25T17:22:57.382Z,20
2018-06-25T17:23:47.474Z,20
2018-06-25T17:24:38.092Z,19.9
2018-06-25T17:25:28.169Z,19.9
2018-06-25T17:26:18.256Z,19.9
2018-06-25T17:27:07.474Z,19.8
2018-06-25T17:27:58.354Z,19.8
2018-06-25T17:28:48.654Z,19.8
2018-06-25T17:29:38.475Z,19.8
2018-06-25T17:30:28.552Z,19.7
2018-06-25T17:31:18.361Z,19.7
2018-06-25T17:32:08.688Z,19.7
2018-06-25T17:32:58.746Z,19.7
2018-06-25T17:33:48.811Z,19.7
2018-06-25T17:34:38.869Z,19.6
2018-06-25T17:35:28.941Z,19.6
2018-06-25T17:36:18.152Z,19.6
2018-06-25T17:37:08.516Z,19.6
2018-06-25T17:37:59.139Z,19.5
2018-06-25T17:38:48.976Z,19.5
2018-06-25T17:39:39.293Z,19.5
2018-06-25T17:40:29.051Z,19.5
2018-06-25T17:41:19.383Z,19.5
2018-06-25T17:42:08.857Z,19.4
2018-06-25T17:42:59.226Z,19.4
2018-06-25T17:43:49.581Z,19.4
2018-06-25T17:44:39.341Z,19.4
2018-06-25T17:45:29.697Z,19.4
2018-06-25T17:46:19.463Z,19.4
2018-06-25T17:47:09.539Z,19.3
2018-06-25T17:47:59.907Z,19.3
2018-06-25T17:48:49.938Z,19.3
2018-06-25T17:49:40.006Z,19.3
2018-06-25T17:50:29.492Z,19.3
2018-06-25T17:51:20.165Z,19.3
2018-06-25T17:52:10.191Z,19.3
2018-06-25T17:52:59.981Z,19.3
2018-06-25T17:53:50.310Z,19.2
2018-06-25T17:54:40.109Z,19.2
2018-06-25T17:55:30.475Z,19.1
2018-06-25T17:56:20.527Z,19.1
2018-06-25T17:57:10.304Z,19.1
2018-06-25T17:58:00.355Z,19.1
2018-06-25T17:58:50.450Z,19.1
2018-06-25T17:59:40.779Z,19.1
2018-06-25T18:00:29.763Z,19.1
2018-06-25T18:01:20.431Z,19.1
2018-06-25T18:02:10.449Z,19.1
2018-06-25T18:03:01.040Z,19.1
2018-06-25T18:03:50.981Z,19.1
2018-06-25T18:04:40.867Z,19.1
2018-06-25T18:05:31.223Z,19
2018-06-25T18:06:21.292Z,19
2018-06-25T18:07:11.350Z,18.9
2018-06-25T18:08:00.861Z,18.9
2018-06-25T18:08:50.929Z,18.9
2018-06-25T18:09:41.526Z,18.9
2018-06-25T18:10:31.581Z,18.9
2018-06-25T18:11:21.679Z,18.9
2018-06-25T18:12:11.427Z,18.8
2018-06-25T18:13:01.788Z,18.8
2018-06-25T18:13:51.840Z,18.8
2018-06-25T18:18:01.605Z,18.6
2018-06-25T18:18:51.983Z,18.6
2018-06-25T18:19:42.028Z,18.6
2018-06-25T18:20:32.343Z,18.6
2018-06-25T18:21:22.395Z,18.6
2018-06-25T18:22:12.495Z,18.5
2018-06-25T18:23:01.988Z,18.4
2018-06-25T18:23:52.355Z,18.4
2018-06-25T18:24:42.372Z,18.4
2018-06-25T18:25:32.463Z,18.4
2018-06-25T18:26:22.498Z,18.4
2018-06-25T18:27:12.842Z,18.3
2018-06-25T18:28:02.363Z,18.3
2018-06-25T18:28:52.744Z,18.3
2018-06-25T18:29:43.043Z,18.3
2018-06-25T18:30:32.542Z,18.3
2018-06-25T18:31:22.906Z,18.3
2018-06-25T18:32:13.246Z,18.3
2018-06-25T18:33:03.337Z,18.2
2018-06-25T18:33:53.066Z,18.2
2018-06-25T18:34:43.417Z,18.1
2018-06-25T18:35:33.203Z,18.1
2018-06-25T18:36:23.547Z,18.1
2018-06-25T18:37:13.357Z,18.1
2018-06-25T18:38:03.403Z,18.1
2018-06-25T18:38:53.184Z,18.1
2018-06-25T18:39:43.316Z,18
2018-06-25T18:40:32.900Z,18
2018-06-25T18:41:23.655Z,17.9
2018-06-25T18:42:13.729Z,17.9
2018-06-25T18:43:04.083Z,17.9
2018-06-25T18:43:53.873Z,17.9
2018-06-25T18:44:43.973Z,17.9
2018-06-25T18:45:34.239Z,17.9
2018-06-25T18:46:24.334Z,17.9
2018-06-25T18:47:14.387Z,17.9
2018-06-25T18:48:04.443Z,17.8
2018-06-25T18:48:54.517Z,17.8
2018-06-25T18:49:44.299Z,17.8
2018-06-25T18:50:34.328Z,17.8
2018-06-25T18:51:24.709Z,17.8
2018-06-25T18:52:14.730Z,17.8
2018-06-25T18:53:04.803Z,17.8
2018-06-25T18:53:54.905Z,17.8
2018-06-25T18:54:44.983Z,17.8
2018-06-25T18:55:35.028Z,17.8
2018-06-25T18:56:25.059Z,17.7
2018-06-25T18:57:14.830Z,17.7
2018-06-25T18:58:04.634Z,17.7
2018-06-25T18:58:55.006Z,17.7
2018-06-25T18:59:45.356Z,17.7
2018-06-25T19:00:35.389Z,17.7
2018-06-25T19:01:44.391Z,17.7
2018-06-25T19:02:15.521Z,17.7
2018-06-25T19:03:05.340Z,17.7
2018-06-25T19:03:55.645Z,17.7
2018-06-25T19:04:45.405Z,17.7
2018-06-25T19:05:35.863Z,17.6
2018-06-25T19:06:25.850Z,17.6
2018-06-25T19:07:15.900Z,17.6
2018-06-25T19:08:06.037Z,17.6
2018-06-25T19:08:56.036Z,17.6
2018-06-25T19:09:45.519Z,17.6
2018-06-25T19:10:35.582Z,17.5
2018-06-25T19:11:25.636Z,17.4
2018-06-25T19:12:16.278Z,17.5
2018-06-25T19:13:05.871Z,17.4
2018-06-25T19:13:55.680Z,17.5
2018-06-25T19:14:46.202Z,17.4
2018-06-25T19:15:35.995Z,17.4
2018-06-25T19:16:25.757Z,17.4
2018-06-25T19:17:16.698Z,17.4
2018-06-25T19:18:06.258Z,17.3
2018-06-25T19:18:56.308Z,17.4
2018-06-25T19:19:46.850Z,17.3
2018-06-25T19:20:36.950Z,17.2
2018-06-25T19:21:26.407Z,17.1
2018-06-25T19:22:17.074Z,17.1
2018-06-25T19:23:06.796Z,17.1
2018-06-25T19:23:56.880Z,17.1
2018-06-25T19:25:36.785Z,17.1
2018-06-25T19:26:27.390Z,17.3
2018-06-25T19:27:17.646Z,17.3
2018-06-25T19:28:07.238Z,17.4
2018-06-25T19:28:57.026Z,17.3
2018-06-25T19:29:47.741Z,17.4
2018-06-25T19:30:37.406Z,17.3
2018-06-25T19:31:27.471Z,17.3
2018-06-25T19:32:17.873Z,17.2
2018-06-25T19:33:07.882Z,17.2
2018-06-25T19:33:57.654Z,17.3
2018-06-25T19:34:47.696Z,17.3
2018-06-25T19:35:37.748Z,17.3
2018-06-25T19:36:28.119Z,17.3
2018-06-25T19:37:17.918Z,17.3
2018-06-25T19:38:08.232Z,17.3
2018-06-25T19:38:58.291Z,17.3
2018-06-25T19:39:48.407Z,17.2
2018-06-25T19:40:38.154Z,17.1
2018-06-25T19:41:27.941Z,17.1
2018-06-25T19:42:18.548Z,17.3
2018-06-25T19:43:08.334Z,17.2
2018-06-25T19:43:58.713Z,17.2
2018-06-25T19:44:48.753Z,17.3
2018-06-25T19:45:38.858Z,17.3
2018-06-25T19:46:28.926Z,17.3
2018-06-25T19:47:19.014Z,17.3
2018-06-25T19:48:08.454Z,17.3
2018-06-25T19:48:58.508Z,17.2
2018-06-25T19:49:49.155Z,17.2
2018-06-25T19:50:38.943Z,17.1
2018-06-25T19:51:28.988Z,17.1
2018-06-25T19:52:19.545Z,17.2
2018-06-25T19:53:09.367Z,17.3
2018-06-25T19:53:58.958Z,17.3
2018-06-25T19:54:49.070Z,17.3
2018-06-25T19:55:39.001Z,17.2
2018-06-25T19:56:29.348Z,17.1
2018-06-25T19:57:19.699Z,17.1
2018-06-25T19:59:49.755Z,17.1
2018-06-25T20:00:39.432Z,17.1
2018-06-25T20:01:29.789Z,17.1
2018-06-25T20:02:20.122Z,17.1
2018-06-25T20:03:10.200Z,17.1
2018-06-25T20:04:00.226Z,17.1
2018-06-25T20:04:50.302Z,17.1
2018-06-25T20:05:40.449Z,17.1
2018-06-25T20:06:30.451Z,17.1
2018-06-25T20:07:20.210Z,17.1
2018-06-25T20:08:10.319Z,17.1
2018-06-25T20:09:00.311Z,17.1
2018-06-25T20:09:50.757Z,17.1
2018-06-25T20:16:31.001Z,16.9
2018-06-25T20:17:21.236Z,16.9
2018-06-25T20:18:10.734Z,16.9
2018-06-25T20:20:40.960Z,17.1
2018-06-25T20:21:31.323Z,17.1
2018-06-25T20:23:11.410Z,17.1
2018-06-25T20:24:01.751Z,17.1
2018-06-25T20:24:52.068Z,17.1
2018-06-25T20:25:42.004Z,17.1
2018-06-25T20:26:31.676Z,17.1
2018-06-25T20:27:21.717Z,17.1
2018-06-25T20:29:01.651Z,16.9
2018-06-25T20:29:51.610Z,16.9
2018-06-25T20:32:22.079Z,17.1
2018-06-25T20:33:12.162Z,17.2
2018-06-25T20:34:02.525Z,17.2
2018-06-25T20:34:52.567Z,17.2
2018-06-25T20:35:42.628Z,17.2
2018-06-25T20:36:32.724Z,17.2
2018-06-25T20:37:21.879Z,17.3
2018-06-25T20:38:12.576Z,17.3
2018-06-25T20:39:02.584Z,17.3
2018-06-25T20:39:52.695Z,17.3